createdAt,value
2022-10-03T00:02:00.461Z,12.05
2022-10-03T00:04:49.641Z,12.04
2022-10-03T00:08:05.236Z,12.05
2022-10-03T00:11:12.593Z,12.05
2022-10-03T00:14:06.967Z,12.04
2022-10-03T00:17:05.857Z,12.05
2022-10-03T00:20:06.204Z,12.03
2022-10-03T00:22:59.169Z,12.03
2022-10-03T00:25:42.813Z,12.01
2022-10-03T00:28:55.321Z,12.00
2022-10-03T00:31:45.180Z,12.01
2022-10-03T00:34:44.519Z,12.00
2022-10-03T00:37:27.542Z,12.02
2022-10-03T00:40:29.300Z,12.04
2022-10-03T00:43:26.885Z,12.05
2022-10-03T00:46:18.492Z,12.03
2022-10-03T00:48:58.784Z,12.03
2022-10-03T00:51:54.668Z,12.08
2022-10-03T00:54:53.058Z,12.08
2022-10-03T00:58:01.042Z,12.03
2022-10-03T01:00:36.593Z,11.95
2022-10-03T01:03:36.159Z,11.90
2022-10-03T01:06:34.449Z,11.85
2022-10-03T01:09:37.704Z,11.77
2022-10-03T01:12:47.557Z,11.74
2022-10-03T01:15:48.697Z,11.67
2022-10-03T01:18:29.679Z,11.60
2022-10-03T01:21:42.292Z,11.55
2022-10-03T01:24:44.261Z,11.50
2022-10-03T01:27:27.107Z,11.40
2022-10-03T01:30:24.538Z,11.33
2022-10-03T01:33:21.935Z,11.30
2022-10-03T01:36:28.462Z,11.26
2022-10-03T01:39:22.114Z,11.21
2022-10-03T01:42:08.719Z,11.18
2022-10-03T01:44:58.436Z,11.12
2022-10-03T01:47:57.276Z,11.09
2022-10-03T01:51:00.074Z,11.08
2022-10-03T01:53:46.174Z,11.03
2022-10-03T01:56:32.638Z,10.97
2022-10-03T01:59:21.450Z,10.96
2022-10-03T02:02:35.172Z,10.93
2022-10-03T02:05:38.584Z,10.91
2022-10-03T02:08:25.574Z,10.84
2022-10-03T02:11:10.463Z,10.79
2022-10-03T02:13:53.834Z,10.76
2022-10-03T02:16:48.839Z,10.76
2022-10-03T02:19:40.573Z,10.72
2022-10-03T02:22:36.750Z,10.70
2022-10-03T02:25:47.862Z,10.68
2022-10-03T02:28:51.089Z,10.67
2022-10-03T02:32:03.894Z,10.64
2022-10-03T02:35:12.782Z,10.62
2022-10-03T02:38:10.787Z,10.60
2022-10-03T02:41:33.815Z,10.58
2022-10-03T02:44:26.237Z,10.55
2022-10-03T02:47:46.427Z,10.55
2022-10-03T02:50:46.164Z,10.55
2022-10-03T02:54:12.170Z,10.49
2022-10-03T02:56:48.312Z,10.48
2022-10-03T02:59:30.904Z,10.48
2022-10-03T03:02:20.521Z,10.45
2022-10-03T03:05:16.397Z,10.44
2022-10-03T03:08:15.002Z,10.44
2022-10-03T03:11:04.907Z,10.42
2022-10-03T03:14:09.676Z,10.39
2022-10-03T03:17:23.751Z,10.39
2022-10-03T03:20:40.700Z,10.37
2022-10-03T03:23:45.548Z,10.37
2022-10-03T03:26:51.840Z,10.34
2022-10-03T03:29:58.705Z,10.31
2022-10-03T03:32:41.837Z,10.28
2022-10-03T03:35:48.541Z,10.26
2022-10-03T03:38:47.116Z,10.28
2022-10-03T03:41:50.495Z,10.27
2022-10-03T03:44:35.417Z,10.25
2022-10-03T03:47:32.569Z,10.22
2022-10-03T03:50:28.189Z,10.19
2022-10-03T03:53:24.925Z,10.17
2022-10-03T03:56:21.877Z,10.15
2022-10-03T03:58:59.894Z,10.14
2022-10-03T04:02:00.214Z,10.11
2022-10-03T04:04:58.837Z,10.10
2022-10-03T04:07:57.491Z,10.08
2022-10-03T04:11:23.708Z,10.08
2022-10-03T04:14:17.651Z,10.08
2022-10-03T04:17:44.912Z,10.08
2022-10-03T04:21:00.402Z,10.07
2022-10-03T04:24:00.506Z,10.07
2022-10-03T04:27:06.339Z,10.08
2022-10-03T04:30:14.497Z,10.07
2022-10-03T04:33:09.527Z,10.10
2022-10-03T04:36:27.627Z,10.14
2022-10-03T04:39:24.522Z,10.20
2022-10-03T04:42:19.692Z,10.24
2022-10-03T04:45:10.902Z,10.28
2022-10-03T04:48:03.008Z,10.35
2022-10-03T04:50:54.981Z,10.38
2022-10-03T04:53:50.627Z,10.44
2022-10-03T04:56:33.785Z,10.53
2022-10-03T04:59:23.025Z,10.62
2022-10-03T05:02:06.721Z,10.73
2022-10-03T05:04:55.781Z,10.83
2022-10-03T05:07:45.219Z,10.91
2022-10-03T05:10:43.607Z,10.99
2022-10-03T05:13:48.309Z,11.07
2022-10-03T05:16:31.889Z,11.15
2022-10-03T05:19:12.510Z,11.21
2022-10-03T05:21:58.842Z,11.30
2022-10-03T05:24:57.578Z,11.34
2022-10-03T05:27:56.153Z,11.39
2022-10-03T05:30:54.646Z,11.44
2022-10-03T05:33:37.709Z,11.51
2022-10-03T05:36:36.009Z,11.58
2022-10-03T05:39:42.868Z,11.65
2022-10-03T05:42:46.130Z,11.71
2022-10-03T05:45:32.743Z,11.80
2022-10-03T05:48:31.028Z,11.87
2022-10-03T05:51:43.375Z,11.85
2022-10-03T05:54:32.552Z,11.93
2022-10-03T05:57:16.190Z,11.98
2022-10-03T06:00:02.665Z,12.01
2022-10-03T06:03:09.266Z,12.06
2022-10-03T06:06:08.579Z,12.14
2022-10-03T06:09:19.815Z,12.25
2022-10-03T06:12:20.126Z,12.34
2022-10-03T06:15:00.512Z,12.39
2022-10-03T06:17:54.034Z,12.42
2022-10-03T06:20:55.489Z,12.48
2022-10-03T06:23:49.643Z,12.54
2022-10-03T06:26:48.206Z,12.65
2022-10-03T06:29:37.925Z,12.72
2022-10-03T06:32:39.294Z,12.77
2022-10-03T06:35:50.255Z,12.79
2022-10-03T06:39:18.328Z,12.83
2022-10-03T06:42:29.527Z,12.90
2022-10-03T06:45:44.778Z,12.98
2022-10-03T06:48:39.830Z,13.04
2022-10-03T06:51:58.247Z,13.14
2022-10-03T06:55:01.616Z,13.19
2022-10-03T06:58:02.070Z,13.20
2022-10-03T07:00:56.849Z,13.17
2022-10-03T07:04:24.793Z,13.21
2022-10-03T07:07:11.281Z,13.29
2022-10-03T07:10:26.705Z,13.34
2022-10-03T07:13:24.480Z,13.44
2022-10-03T07:16:32.085Z,13.54
2022-10-03T07:19:23.033Z,13.62
2022-10-03T07:22:25.280Z,13.73
2022-10-03T07:25:46.330Z,13.88
2022-10-03T07:28:49.450Z,14.01
2022-10-03T07:32:01.841Z,14.07
2022-10-03T07:35:10.965Z,14.08
2022-10-03T07:38:35.162Z,14.10
2022-10-03T07:41:35.422Z,14.17
2022-10-03T07:44:52.048Z,14.22
2022-10-03T07:48:04.733Z,14.25
2022-10-03T07:51:09.995Z,14.28
2022-10-03T07:54:27.270Z,14.37
2022-10-03T07:57:04.856Z,14.45
2022-10-03T07:59:57.821Z,14.55
2022-10-03T08:03:21.314Z,14.64
2022-10-03T08:06:24.285Z,14.71
2022-10-03T08:09:25.559Z,14.75
2022-10-03T08:12:29.544Z,14.72
2022-10-03T08:15:07.253Z,14.65
2022-10-03T08:17:57.444Z,14.53
2022-10-03T08:20:55.512Z,14.50
2022-10-03T08:24:01.259Z,14.52
2022-10-03T08:27:02.923Z,14.53
2022-10-03T08:30:10.847Z,14.53
2022-10-03T08:33:00.619Z,14.62
2022-10-03T08:36:10.039Z,14.70
2022-10-03T08:38:52.775Z,14.70
2022-10-03T08:41:56.007Z,14.65
2022-10-03T08:45:03.740Z,14.69
2022-10-03T08:47:42.528Z,14.82
2022-10-03T08:50:31.450Z,14.99
2022-10-03T08:53:31.711Z,15.17
2022-10-03T08:56:23.025Z,15.34
2022-10-03T08:59:12.422Z,15.44
2022-10-03T09:02:18.531Z,15.53
2022-10-03T09:05:30.819Z,15.61
2022-10-03T09:08:27.429Z,15.67
2022-10-03T09:11:41.409Z,15.78
2022-10-03T09:14:36.755Z,15.82
2022-10-03T09:17:23.878Z,15.80
2022-10-03T09:20:26.885Z,15.86
2022-10-03T09:23:30.156Z,15.96
2022-10-03T09:26:46.851Z,16.02
2022-10-03T09:29:42.337Z,16.10
2022-10-03T09:32:34.749Z,16.16
2022-10-03T09:35:46.120Z,16.22
2022-10-03T09:38:52.797Z,16.30
2022-10-03T09:42:04.201Z,16.28
2022-10-03T09:44:51.169Z,16.30
2022-10-03T09:48:11.495Z,16.32
2022-10-03T09:51:12.276Z,16.31
2022-10-03T09:54:26.143Z,16.24
2022-10-03T09:57:22.600Z,16.24
2022-10-03T10:00:06.147Z,16.27
2022-10-03T10:03:12.503Z,16.31
2022-10-03T10:06:08.806Z,16.30
2022-10-03T10:09:22.136Z,16.28
2022-10-03T10:12:08.666Z,16.27
2022-10-03T10:15:00.835Z,16.29
2022-10-03T10:18:16.341Z,16.34
2022-10-03T10:21:16.496Z,16.37
2022-10-03T10:24:26.243Z,16.36
2022-10-03T10:27:35.394Z,16.30
2022-10-03T10:30:33.962Z,16.17
2022-10-03T10:33:24.638Z,16.06
2022-10-03T10:36:50.797Z,16.01
2022-10-03T10:39:30.951Z,16.00
2022-10-03T10:42:29.459Z,16.02
2022-10-03T10:45:36.321Z,16.09
2022-10-03T10:48:40.205Z,16.22
2022-10-03T10:51:36.973Z,16.31
2022-10-03T10:54:46.644Z,16.29
2022-10-03T10:57:54.984Z,16.20
2022-10-03T11:00:50.329Z,16.13
2022-10-03T11:03:48.596Z,16.18
2022-10-03T11:06:32.535Z,16.33
2022-10-03T11:09:24.759Z,16.41
2022-10-03T11:12:40.091Z,16.42
2022-10-03T11:15:57.431Z,16.45
2022-10-03T11:19:03.397Z,16.52
2022-10-03T11:22:00.062Z,16.58
2022-10-03T11:25:08.115Z,16.61
2022-10-03T11:28:29.644Z,16.65
2022-10-03T11:31:40.318Z,16.73
2022-10-03T11:34:49.809Z,16.77
2022-10-03T11:38:08.402Z,16.74
2022-10-03T11:41:23.371Z,16.80
2022-10-03T11:44:24.051Z,16.95
2022-10-03T11:47:22.783Z,17.00
2022-10-03T11:50:15.143Z,17.06
2022-10-03T11:53:08.177Z,17.17
2022-10-03T11:55:57.720Z,17.21
2022-10-03T11:58:46.612Z,17.25
2022-10-03T12:01:51.335Z,17.25
2022-10-03T12:05:04.216Z,17.27
2022-10-03T12:08:14.952Z,17.29
2022-10-03T12:11:06.270Z,17.31
2022-10-03T12:14:10.759Z,17.32
2022-10-03T12:17:20.403Z,17.30
2022-10-03T12:20:06.756Z,17.26
2022-10-03T12:23:12.490Z,17.23
2022-10-03T12:25:47.393Z,17.20
2022-10-03T12:28:40.760Z,17.12
2022-10-03T12:31:25.098Z,17.05
2022-10-03T12:34:36.119Z,16.98
2022-10-03T12:37:43.956Z,16.95
2022-10-03T12:40:36.440Z,16.94
2022-10-03T12:43:51.799Z,16.94
2022-10-03T12:46:41.635Z,16.96
2022-10-03T12:49:20.817Z,17.04
2022-10-03T12:52:03.230Z,17.08
2022-10-03T12:55:12.618Z,17.07
2022-10-03T12:58:02.039Z,17.02
2022-10-03T13:01:07.382Z,16.98
2022-10-03T13:04:00.800Z,16.95
2022-10-03T13:07:03.773Z,16.91
2022-10-03T13:10:09.454Z,16.83
2022-10-03T13:12:50.976Z,16.74
2022-10-03T13:15:45.370Z,16.64
2022-10-03T13:18:32.069Z,16.63
2022-10-03T13:21:45.105Z,16.62
2022-10-03T13:24:11.663Z,16.59
2022-10-03T13:27:07.433Z,16.51
2022-10-03T13:29:49.351Z,16.39
2022-10-03T13:32:41.059Z,16.35
2022-10-03T13:35:42.531Z,16.34
2022-10-03T13:38:54.922Z,16.34
2022-10-03T13:41:58.394Z,16.36
2022-10-03T13:44:41.664Z,16.34
2022-10-03T13:47:51.839Z,16.37
2022-10-03T13:51:05.767Z,16.37
2022-10-03T13:53:51.831Z,16.39
2022-10-03T13:56:51.000Z,16.40
2022-10-03T13:59:46.959Z,16.43
2022-10-03T14:02:36.840Z,16.46
2022-10-03T14:05:34.988Z,16.50
2022-10-03T14:08:39.749Z,16.48
2022-10-03T14:11:38.715Z,16.42
2022-10-03T14:14:25.573Z,16.34
2022-10-03T14:17:22.361Z,16.27
2022-10-03T14:20:34.791Z,16.20
2022-10-03T14:23:30.102Z,16.12
2022-10-03T14:26:23.112Z,16.02
2022-10-03T14:29:18.158Z,15.95
2022-10-03T14:31:59.584Z,15.86
2022-10-03T14:35:00.894Z,15.78
2022-10-03T14:37:41.242Z,15.69
2022-10-03T14:40:28.516Z,15.61
2022-10-03T14:43:29.936Z,15.53
2022-10-03T14:46:04.507Z,15.45
2022-10-03T14:48:46.325Z,15.36
2022-10-03T14:51:26.360Z,15.29
2022-10-03T14:54:05.818Z,15.21
2022-10-03T14:56:45.720Z,15.15
2022-10-03T14:59:25.900Z,15.08
2022-10-03T15:02:01.187Z,15.02
2022-10-03T15:04:42.918Z,14.95
2022-10-03T15:07:15.994Z,14.88
2022-10-03T15:09:50.572Z,14.79
2022-10-03T15:12:28.858Z,14.70
2022-10-03T15:15:13.626Z,14.63
2022-10-03T15:17:52.503Z,14.57
2022-10-03T15:20:38.289Z,14.49
2022-10-03T15:23:35.092Z,14.44
2022-10-03T15:26:18.954Z,14.38
2022-10-03T15:28:55.619Z,14.30
2022-10-03T15:31:37.957Z,14.23
2022-10-03T15:34:15.994Z,14.16
2022-10-03T15:36:52.483Z,14.12
2022-10-03T15:39:37.706Z,14.07
2022-10-03T15:42:25.747Z,14.01
2022-10-03T15:45:07.087Z,13.97
2022-10-03T15:47:44.285Z,13.94
2022-10-03T15:50:34.281Z,13.93
2022-10-03T15:53:36.145Z,13.90
2022-10-03T15:56:15.717Z,13.87
2022-10-03T15:58:51.872Z,13.82
2022-10-03T16:01:38.380Z,13.77
2022-10-03T16:04:38.322Z,13.74
2022-10-03T16:07:28.966Z,13.72
2022-10-03T16:10:23.863Z,13.70
2022-10-03T16:13:03.746Z,13.69
2022-10-03T16:16:00.954Z,13.66
2022-10-03T16:18:48.712Z,13.63
2022-10-03T16:22:12.822Z,13.59
2022-10-03T16:25:07.443Z,13.53
2022-10-03T16:27:43.316Z,13.49
2022-10-03T16:30:20.787Z,13.45
2022-10-03T16:33:32.759Z,13.42
2022-10-03T16:36:16.572Z,13.38
2022-10-03T16:38:59.936Z,13.32
2022-10-03T16:41:35.913Z,13.29
2022-10-03T16:44:38.757Z,13.28
2022-10-03T16:47:12.374Z,13.26
2022-10-03T16:50:16.005Z,13.27
2022-10-03T16:52:54.545Z,13.26
2022-10-03T16:55:37.369Z,13.25
2022-10-03T16:58:34.395Z,13.19
2022-10-03T17:01:26.946Z,13.17
2022-10-03T17:03:54.348Z,13.17
2022-10-03T17:06:38.678Z,13.19
2022-10-03T17:09:28.408Z,13.19
2022-10-03T17:12:02.448Z,13.19
2022-10-03T17:14:42.142Z,13.15
2022-10-03T17:17:42.598Z,13.12
2022-10-03T17:20:38.313Z,13.08
2022-10-03T17:23:38.239Z,13.05
2022-10-03T17:26:18.094Z,13.06
2022-10-03T17:29:13.444Z,13.05
2022-10-03T17:32:05.480Z,13.05
2022-10-03T17:34:54.015Z,13.02
2022-10-03T17:37:55.916Z,12.98
2022-10-03T17:40:48.032Z,12.95
2022-10-03T17:43:36.295Z,12.95
2022-10-03T17:46:41.512Z,12.94
2022-10-03T17:49:39.705Z,12.95
2022-10-03T17:52:16.785Z,12.94
2022-10-03T17:55:04.807Z,12.87
2022-10-03T17:57:50.755Z,12.82
2022-10-03T18:00:33.343Z,12.80
2022-10-03T18:03:20.501Z,12.79
2022-10-03T18:05:58.063Z,12.81
2022-10-03T18:08:39.139Z,12.85
2022-10-03T18:11:20.755Z,12.86
2022-10-03T18:14:02.505Z,12.88
2022-10-03T18:16:41.680Z,12.89
2022-10-03T18:19:28.551Z,12.86
2022-10-03T18:22:12.793Z,12.83
2022-10-03T18:25:35.348Z,12.81
2022-10-03T18:28:21.301Z,12.81
2022-10-03T18:31:03.969Z,12.81
2022-10-03T18:33:58.992Z,12.80
2022-10-03T18:36:39.390Z,12.78
2022-10-03T18:39:22.500Z,12.76
2022-10-03T18:42:01.864Z,12.74
2022-10-03T18:44:36.495Z,12.71
2022-10-03T18:47:38.689Z,12.68
2022-10-03T18:50:30.522Z,12.67
2022-10-03T18:53:28.231Z,12.68
2022-10-03T18:56:08.958Z,12.66
2022-10-03T18:58:45.334Z,12.62
2022-10-03T19:01:47.870Z,12.58
2022-10-03T19:04:40.247Z,12.57
2022-10-03T19:07:30.026Z,12.56
2022-10-03T19:10:16.790Z,12.56
2022-10-03T19:13:10.901Z,12.52
2022-10-03T19:16:29.887Z,12.49
2022-10-03T19:19:42.095Z,12.48
2022-10-03T19:22:17.489Z,12.46
2022-10-03T19:24:58.798Z,12.47
2022-10-03T19:27:50.018Z,12.47
2022-10-03T19:30:26.286Z,12.45
2022-10-03T19:33:19.331Z,12.47
2022-10-03T19:35:53.095Z,12.48
2022-10-03T19:38:29.609Z,12.49
2022-10-03T19:41:40.840Z,12.50
2022-10-03T19:44:27.046Z,12.53
2022-10-03T19:47:21.559Z,12.51
2022-10-03T19:50:23.438Z,12.51
2022-10-03T19:52:56.266Z,12.52
2022-10-03T19:55:36.578Z,12.51
2022-10-03T19:58:24.553Z,12.48
2022-10-03T20:01:01.495Z,12.42
2022-10-03T20:03:44.998Z,12.37
2022-10-03T20:06:28.025Z,12.36
2022-10-03T20:09:20.373Z,12.38
2022-10-03T20:12:10.341Z,12.38
2022-10-03T20:14:44.266Z,12.37
2022-10-03T20:17:23.426Z,12.38
2022-10-03T20:19:59.486Z,12.39
2022-10-03T20:22:37.743Z,12.40
2022-10-03T20:25:28.541Z,12.43
2022-10-03T20:28:02.580Z,12.44
2022-10-03T20:30:54.089Z,12.43
2022-10-03T20:33:35.797Z,12.42
2022-10-03T20:36:33.307Z,12.37
2022-10-03T20:39:29.060Z,12.31
2022-10-03T20:42:13.636Z,12.28
2022-10-03T20:45:10.117Z,12.28
2022-10-03T20:48:06.641Z,12.26
2022-10-03T20:50:45.674Z,12.22
2022-10-03T20:53:27.959Z,12.20
2022-10-03T20:56:07.203Z,12.17
2022-10-03T20:58:52.857Z,12.15
2022-10-03T21:01:32.483Z,12.16
2022-10-03T21:04:34.202Z,12.16
2022-10-03T21:07:31.341Z,12.16
2022-10-03T21:10:27.054Z,12.16
2022-10-03T21:13:04.586Z,12.13
2022-10-03T21:15:47.730Z,12.13
2022-10-03T21:18:37.332Z,12.13
2022-10-03T21:21:26.848Z,12.11
2022-10-03T21:24:26.226Z,12.10
2022-10-03T21:27:07.800Z,12.07
2022-10-03T21:29:42.053Z,12.06
2022-10-03T21:32:25.411Z,12.05
2022-10-03T21:35:23.318Z,12.04
2022-10-03T21:38:27.130Z,12.01
2022-10-03T21:41:30.531Z,11.97
2022-10-03T21:44:06.446Z,11.93
2022-10-03T21:47:02.851Z,11.87
2022-10-03T21:49:55.918Z,11.87
2022-10-03T21:52:54.556Z,11.85
2022-10-03T21:55:55.062Z,11.82
2022-10-03T21:58:50.575Z,11.77
2022-10-03T22:01:42.545Z,11.75
2022-10-03T22:04:34.795Z,11.79
2022-10-03T22:07:12.714Z,11.82
2022-10-03T22:09:53.752Z,11.84
2022-10-03T22:12:32.558Z,11.85
2022-10-03T22:15:13.039Z,11.84
2022-10-03T22:18:08.137Z,11.84
2022-10-03T22:21:14.131Z,11.80
2022-10-03T22:23:58.707Z,11.76
2022-10-03T22:26:36.239Z,11.75
2022-10-03T22:29:37.450Z,11.79
2022-10-03T22:32:23.365Z,11.81
2022-10-03T22:35:24.210Z,11.82
2022-10-03T22:37:58.409Z,11.83
2022-10-03T22:40:31.897Z,11.81
2022-10-03T22:43:06.476Z,11.78
2022-10-03T22:45:42.405Z,11.79
2022-10-03T22:48:22.815Z,11.79
2022-10-03T22:50:56.687Z,11.76
2022-10-03T22:53:33.281Z,11.74
2022-10-03T22:56:30.224Z,11.71
2022-10-03T22:59:06.732Z,11.68
2022-10-03T23:01:45.295Z,11.64
2022-10-03T23:04:47.265Z,11.61
2022-10-03T23:07:58.164Z,11.61
2022-10-03T23:11:00.381Z,11.64
2022-10-03T23:13:44.502Z,11.62
2022-10-03T23:16:39.969Z,11.60
2022-10-03T23:19:18.292Z,11.58
2022-10-03T23:21:53.249Z,11.58
2022-10-03T23:24:35.797Z,11.58
2022-10-03T23:27:49.187Z,11.56
2022-10-03T23:30:29.765Z,11.55
2022-10-03T23:33:02.994Z,11.52
2022-10-03T23:35:47.476Z,11.47
2022-10-03T23:38:40.212Z,11.46
2022-10-03T23:41:16.810Z,11.43
2022-10-03T23:43:58.988Z,11.39
2022-10-03T23:46:33.655Z,11.40
2022-10-03T23:49:08.036Z,11.42
2022-10-03T23:51:41.614Z,11.43
2022-10-03T23:54:15.911Z,11.44
2022-10-03T23:56:50.746Z,11.46
2022-10-03T23:59:27.750Z,11.49
